Terminal Aerodrome Forecast
Issued by NWS Louisville, KY

Home | Current Version | Previous Version | Text Only | Print | Product List | Glossary On
Versions: 1 2 3 4 5 6 7 8 9 10 11 12 13 14 15 16 17 18 19 20 21
000
FTUS43 KLMK 052143 AAA
TAFBWG
TAF AMD
KBWG 052143Z 0522/0618 06007KT P6SM OVC015
     FM060300 09005KT 5SM -RA BR BKN010
     FM060600 08005KT 3SM -RA BR OVC007
     FM060900 VRB05KT 2SM RA BR OVC003
     FM061400 32007KT 3SM BR OVC005=

USA.gov is the U.S. government's official web portal to all federal, state and local government web resources and services.